Time;durP1;ratioP1;P1;durP2;ratioP2;P2;SDS_P1;SDS_P2;PMS_P1;PMS_P2;Temp;Humidity;BMP_temperature;BMP_pressure;BME280_temperature;BME280_humidity;BME280_pressure;Samples;Min_cycle;Max_cycle;Signal;HPM_P1;HPM_P2
2023/06/04 00:00:44;;;;;;;17.20;12.63;;;384.70;2329.60;;;;;;5028906;28;20380;-53
2023/06/04 00:03:10;;;;;;;16.10;13.20;;;384.70;2329.60;;;;;;5016067;28;20048;-62
2023/06/04 00:05:35;;;;;;;19.85;11.82;;;384.80;2048.00;;;;;;5010975;28;20545;-61
2023/06/04 00:08:01;;;;;;;16.52;12.75;;;384.80;2329.60;;;;;;5020978;28;20073;-62
2023/06/04 00:10:27;;;;;;;19.55;12.90;;;384.60;2329.60;;;;;;5015687;28;20032;-55
2023/06/04 00:12:52;;;;;;;18.13;13.07;;;384.60;2329.60;;;;;;5019876;28;20372;-62
2023/06/04 00:15:18;;;;;;;17.85;13.60;;;384.50;2329.60;;;;;;5009996;28;20022;-54
2023/06/04 00:17:44;;;;;;;15.93;13.35;;;384.50;2329.60;;;;;;5009810;28;20372;-61
2023/06/04 00:20:10;;;;;;;21.23;12.27;;;384.50;2329.60;;;;;;5023985;28;20052;-56
2023/06/04 00:22:36;;;;;;;15.75;13.10;;;384.50;2329.60;;;;;;5029065;28;20565;-63
2023/06/04 00:25:03;;;;;;;17.52;13.88;;;384.50;2329.60;;;;;;5029180;28;20026;-64
2023/06/04 00:27:29;;;;;;;16.65;12.48;;;384.50;2329.60;;;;;;5028835;28;20064;-55
2023/06/04 00:29:54;;;;;;;14.75;12.40;;;384.70;2329.60;;;;;;5029206;28;20084;-60
2023/06/04 00:32:21;;;;;;;20.80;13.73;;;384.70;2329.60;;;;;;5028865;28;20116;-56
2023/06/04 00:34:53;;;;;;;17.23;12.63;;;384.80;2329.60;;;;;;5028877;28;20039;-56
2023/06/04 00:37:20;;;;;;;27.52;13.65;;;384.80;2252.80;;;;;;5028549;28;20073;-62
2023/06/04 00:39:45;;;;;;;15.38;12.45;;;384.90;2124.80;;;;;;5028261;28;20044;-60
2023/06/04 00:42:11;;;;;;;22.15;11.82;;;384.70;2329.60;;;;;;5020652;28;20017;-53
2023/06/04 00:44:37;;;;;;;15.02;11.60;;;384.70;2329.60;;;;;;5008860;28;20034;-55
2023/06/04 00:47:03;;;;;;;14.45;11.38;;;384.70;2329.60;;;;;;5013937;28;20033;-57
2023/06/04 00:49:29;;;;;;;15.07;10.70;;;384.70;2329.60;;;;;;5021702;28;20049;-62
2023/06/04 00:51:55;;;;;;;20.88;11.60;;;384.70;2201.60;;;;;;5009059;28;20018;-54
2023/06/04 00:54:21;;;;;;;17.20;11.40;;;384.80;2329.60;;;;;;5012837;28;20108;-54
2023/06/04 00:56:48;;;;;;;19.17;12.68;;;384.70;2329.60;;;;;;5028653;28;20029;-56
2023/06/04 00:59:14;;;;;;;18.77;11.40;;;384.70;2329.60;;;;;;5028783;28;20531;-54
2023/06/04 01:02:04;;;;;;;15.45;11.90;;;384.60;1971.20;;;;;;5028715;28;20056;-55
2023/06/04 01:04:55;;;;;;;13.30;10.77;;;384.60;2329.60;;;;;;5028634;28;20023;-54
2023/06/04 01:07:23;;;;;;;14.75;11.70;;;384.50;2329.60;;;;;;5028317;28;20159;-53
2023/06/04 01:09:49;;;;;;;19.15;12.40;;;384.40;2329.60;;;;;;5028550;28;20052;-54
2023/06/04 01:12:15;;;;;;;18.80;13.30;;;384.30;2329.60;;;;;;5028793;28;20448;-53
2023/06/04 01:14:41;;;;;;;15.75;11.68;;;384.10;2329.60;;;;;;5028307;28;20167;-54
2023/06/04 01:17:36;;;;;;;16.42;11.63;;;384.10;2329.60;;;;;;5028328;28;20022;-55
2023/06/04 01:20:21;;;;;;;14.10;11.23;;;384.10;2329.60;;;;;;5027802;28;20387;-54
2023/06/04 01:22:56;;;;;;;15.40;11.32;;;384.10;2329.60;;;;;;5028699;28;20438;-54
2023/06/04 01:25:38;;;;;;;18.52;11.40;;;384.30;2329.60;;;;;;5028295;28;20104;-53
2023/06/04 01:28:10;;;;;;;13.52;9.68;;;384.30;2329.60;;;;;;5028653;28;20087;-53
2023/06/04 01:30:42;;;;;;;16.95;11.50;;;384.40;2329.60;;;;;;5028770;28;20034;-53
2023/06/04 01:33:12;;;;;;;13.73;10.02;;;384.40;2329.60;;;;;;5028394;28;20022;-54
2023/06/04 01:35:38;;;;;;;14.05;10.63;;;384.40;2329.60;;;;;;5028273;28;20498;-64
2023/06/04 01:38:04;;;;;;;14.75;10.52;;;384.40;2329.60;;;;;;5028370;28;20037;-53
2023/06/04 01:40:30;;;;;;;14.48;11.70;;;384.40;2329.60;;;;;;5028138;28;20042;-55
2023/06/04 01:42:56;;;;;;;17.80;11.50;;;384.40;2329.60;;;;;;5028350;28;20391;-54
2023/06/04 01:45:23;;;;;;;16.25;11.27;;;384.40;2329.60;;;;;;5028768;28;20024;-52
2023/06/04 01:47:49;;;;;;;17.92;11.27;;;384.40;2329.60;;;;;;5028218;28;20022;-53
2023/06/04 01:50:16;;;;;;;16.02;10.98;;;384.40;2329.60;;;;;;5028639;28;20125;-53
2023/06/04 01:52:43;;;;;;;14.90;11.48;;;384.30;2329.60;;;;;;5028114;28;20025;-54
2023/06/04 01:55:11;;;;;;;18.23;11.27;;;384.30;2329.60;;;;;;5028083;28;20403;-54
2023/06/04 01:57:38;;;;;;;16.05;10.90;;;384.30;2329.60;;;;;;5027922;28;21224;-54
2023/06/04 02:00:08;;;;;;;18.60;12.00;;;384.20;2329.60;;;;;;5029527;28;20408;-53
2023/06/04 02:02:33;;;;;;;14.10;11.48;;;384.20;2329.60;;;;;;5030833;28;20463;-57
2023/06/04 02:04:59;;;;;;;14.25;10.70;;;384.20;2329.60;;;;;;5031808;28;20117;-63
2023/06/04 02:07:25;;;;;;;15.95;10.40;;;384.00;2329.60;;;;;;5031604;28;20120;-54
2023/06/04 02:09:51;;;;;;;15.70;11.07;;;384.10;2329.60;;;;;;5031530;28;20045;-54
2023/06/04 02:12:18;;;;;;;16.33;10.90;;;384.10;2329.60;;;;;;5031238;28;20076;-55
2023/06/04 02:14:45;;;;;;;12.50;10.77;;;384.10;2329.60;;;;;;5031944;28;20113;-62
2023/06/04 02:17:16;;;;;;;14.30;10.88;;;384.10;2329.60;;;;;;5031359;28;20027;-54
2023/06/04 02:19:49;;;;;;;14.52;12.10;;;384.10;2329.60;;;;;;5031639;28;20030;-63
2023/06/04 02:22:19;;;;;;;13.63;11.25;;;384.10;2329.60;;;;;;5031917;28;20022;-60
2023/06/04 02:24:45;;;;;;;17.98;11.20;;;384.10;2329.60;;;;;;5031543;28;20082;-55
2023/06/04 02:27:12;;;;;;;15.70;10.95;;;384.10;2329.60;;;;;;5031304;28;20025;-53
2023/06/04 02:29:41;;;;;;;14.45;10.88;;;384.00;2329.60;;;;;;5031124;28;20037;-55
2023/06/04 02:32:07;;;;;;;15.35;11.20;;;359.30;2329.60;;;;;;5031575;28;20375;-54
2023/06/04 02:34:36;;;;;;;16.67;10.77;;;359.30;2329.60;;;;;;5031253;28;20082;-53
2023/06/04 02:37:02;;;;;;;13.18;11.00;;;359.30;2329.60;;;;;;5031266;28;20104;-54
2023/06/04 02:39:28;;;;;;;14.20;11.60;;;359.30;2329.60;;;;;;5031172;28;20034;-54
2023/06/04 02:41:55;;;;;;;14.27;10.65;;;359.30;2329.60;;;;;;5031378;28;20060;-54
2023/06/04 02:44:21;;;;;;;15.27;10.02;;;359.30;2329.60;;;;;;5030989;28;20040;-53
2023/06/04 02:46:47;;;;;;;15.63;11.05;;;359.30;2329.60;;;;;;5031062;28;20021;-56
2023/06/04 02:49:13;;;;;;;15.68;11.70;;;359.30;2329.60;;;;;;5031309;28;20399;-55
2023/06/04 02:51:45;;;;;;;15.95;10.05;;;359.30;2329.60;;;;;;5030800;28;20024;-55
2023/06/04 02:54:11;;;;;;;18.87;10.60;;;359.20;2329.60;;;;;;5030972;28;20567;-55
2023/06/04 02:56:37;;;;;;;12.60;10.05;;;359.20;2329.60;;;;;;5031031;28;20455;-56
2023/06/04 02:59:03;;;;;;;15.98;10.38;;;359.20;2329.60;;;;;;5031051;28;20053;-54
2023/06/04 03:01:30;;;;;;;15.57;10.23;;;359.10;2329.60;;;;;;5030702;28;20464;-54
2023/06/04 03:03:57;;;;;;;15.07;10.43;;;359.10;2329.60;;;;;;5030912;28;20049;-56
2023/06/04 03:06:23;;;;;;;15.48;11.27;;;359.30;2329.60;;;;;;5030592;28;20024;-62
2023/06/04 03:08:50;;;;;;;15.05;10.13;;;359.30;2329.60;;;;;;5030347;28;20515;-55
2023/06/04 03:11:16;;;;;;;15.27;9.63;;;359.30;2329.60;;;;;;5030623;28;20048;-56
2023/06/04 03:13:42;;;;;;;15.68;10.88;;;359.30;2329.60;;;;;;5030548;28;20435;-62
2023/06/04 03:16:09;;;;;;;17.35;9.70;;;384.10;2329.60;;;;;;5030550;28;20025;-58
2023/06/04 03:18:36;;;;;;;15.43;10.48;;;384.20;2329.60;;;;;;5030518;28;20025;-58
2023/06/04 03:21:03;;;;;;;11.57;9.98;;;384.20;2329.60;;;;;;5030553;28;20021;-55
2023/06/04 03:23:29;;;;;;;12.70;9.90;;;384.30;2329.60;;;;;;5030290;28;21466;-53
2023/06/04 03:25:54;;;;;;;12.85;10.10;;;384.30;2329.60;;;;;;5030681;28;20018;-54
2023/06/04 03:28:20;;;;;;;16.33;9.25;;;384.30;2329.60;;;;;;5030249;28;20040;-54
2023/06/04 03:30:46;;;;;;;12.23;9.35;;;384.30;2329.60;;;;;;5030471;28;20057;-55
2023/06/04 03:33:12;;;;;;;13.05;9.10;;;384.90;2329.60;;;;;;5030058;28;20021;-59
2023/06/04 03:35:39;;;;;;;12.70;9.55;;;384.50;2329.60;;;;;;5029853;28;20159;-55
2023/06/04 03:38:05;;;;;;;13.95;9.20;;;384.50;2329.60;;;;;;5030356;28;20021;-64
2023/06/04 03:40:31;;;;;;;13.07;9.50;;;384.60;2329.60;;;;;;5029851;28;20051;-55
2023/06/04 03:42:56;;;;;;;10.80;9.70;;;384.70;2329.60;;;;;;5030133;28;20032;-54
2023/06/04 03:45:22;;;;;;;14.02;9.18;;;384.80;2329.60;;;;;;5030118;28;20029;-53
2023/06/04 03:47:48;;;;;;;14.35;9.52;;;409.60;2355.20;;;;;;5029965;28;20075;-55
2023/06/04 03:50:13;;;;;;;16.73;9.57;;;409.60;2355.20;;;;;;5029705;28;20091;-54
2023/06/04 03:52:39;;;;;;;11.40;9.45;;;409.60;2355.20;;;;;;5029545;28;20020;-54
2023/06/04 03:55:05;;;;;;;12.10;8.48;;;409.80;2355.20;;;;;;5029928;28;20438;-63
2023/06/04 03:57:32;;;;;;;15.93;9.27;;;409.90;2355.20;;;;;;5029375;28;20021;-55
2023/06/04 03:59:58;;;;;;;12.85;8.93;;;409.90;2355.20;;;;;;5029960;28;20037;-54
2023/06/04 04:02:24;;;;;;;14.07;8.07;;;409.80;2355.20;;;;;;5029759;28;20095;-54
2023/06/04 04:04:50;;;;;;;11.77;8.15;;;410.00;2355.20;;;;;;5029304;28;20070;-57
2023/06/04 04:07:16;;;;;;;10.02;8.05;;;410.10;2355.20;;;;;;5029380;28;20033;-55
2023/06/04 04:09:41;;;;;;;12.27;8.15;;;410.20;2355.20;;;;;;5029606;28;20033;-54
2023/06/04 04:12:07;;;;;;;9.32;8.35;;;410.50;2355.20;;;;;;5029366;28;20026;-54
2023/06/04 04:14:33;;;;;;;12.13;8.25;;;410.50;2355.20;;;;;;5029489;28;20049;-55
2023/06/04 04:16:58;;;;;;;16.20;8.52;;;435.30;2355.20;;;;;;5029062;28;20057;-54
2023/06/04 04:19:25;;;;;;;13.93;7.97;;;435.50;2355.20;;;;;;5029605;28;20025;-55
2023/06/04 04:21:51;;;;;;;16.25;8.43;;;435.50;2355.20;;;;;;5028800;28;20029;-54
2023/06/04 04:24:25;;;;;;;11.73;8.05;;;;;;;;;;5029138;28;20063;-61
2023/06/04 04:26:53;;;;;;;11.75;8.10;;;;;;;;;;5029055;28;20025;-54
2023/06/04 04:29:24;;;;;;;14.32;9.23;;;460.80;2380.80;;;;;;5028803;28;20163;-55
2023/06/04 04:31:53;;;;;;;13.75;8.18;;;;;;;;;;5029067;28;20044;-61
2023/06/04 04:34:21;;;;;;;10.38;8.10;;;538.00;2406.40;;;;;;5029048;28;20021;-58
2023/06/04 04:36:52;;;;;;;10.18;7.97;;;615.10;2380.80;;;;;;5028864;28;20116;-54
2023/06/04 04:39:20;;;;;;;9.52;7.82;;;691.60;2022.40;;;;;;5029363;28;20414;-55
2023/06/04 04:41:46;;;;;;;8.75;6.80;;;742.50;1894.40;;;;;;5028712;28;20128;-56
2023/06/04 04:44:11;;;;;;;9.25;6.78;;;768.40;1766.40;;;;;;5028809;28;20155;-54
2023/06/04 04:46:37;;;;;;;14.85;7.05;;;794.00;1664.00;;;;;;5028826;28;20034;-55
2023/06/04 04:49:03;;;;;;;9.43;6.65;;;794.50;1612.80;;;;;;5028840;28;20044;-58
2023/06/04 04:51:28;;;;;;;8.88;7.53;;;794.50;1612.80;;;;;;5028986;28;20021;-55
2023/06/04 04:53:54;;;;;;;10.38;7.13;;;819.80;1561.60;;;;;;5028983;28;20036;-55
2023/06/04 04:56:22;;;;;;;14.07;7.22;;;845.20;1510.40;;;;;;5028548;28;20052;-54
2023/06/04 04:58:48;;;;;;;10.55;7.30;;;870.50;1484.80;;;;;;5028568;28;20026;-57
2023/06/04 05:01:14;;;;;;;9.20;6.82;;;871.00;1433.60;;;;;;5028879;28;20113;-63
2023/06/04 05:03:40;;;;;;;7.68;6.68;;;896.20;1408.00;;;;;;5028510;28;20400;-64
2023/06/04 05:06:06;;;;;;;11.25;6.97;;;921.80;1382.40;;;;;;5028875;28;20030;-55
2023/06/04 05:08:31;;;;;;;12.32;7.88;;;896.80;1356.80;;;;;;5028834;28;20087;-54
2023/06/04 05:10:57;;;;;;;9.77;6.45;;;922.40;1331.20;;;;;;5029022;28;20029;-55
2023/06/04 05:13:23;;;;;;;8.88;6.80;;;922.00;1356.80;;;;;;5028696;28;20065;-57
2023/06/04 05:15:52;;;;;;;9.55;7.38;;;921.80;1356.80;;;;;;5028739;28;20029;-65
2023/06/04 05:18:20;;;;;;;10.13;7.72;;;948.00;1280.00;;;;;;5027552;28;20427;-56
2023/06/04 05:20:46;;;;;;;10.13;7.43;;;972.80;1280.00;;;;;;5028784;28;20388;-56
2023/06/04 05:23:12;;;;;;;11.00;7.18;;;973.70;1228.80;;;;;;5028536;28;20468;-59
2023/06/04 05:25:38;;;;;;;9.93;7.13;;;998.50;1254.40;;;;;;5028495;28;20026;-61
2023/06/04 05:28:05;;;;;;;7.22;6.53;;;998.60;1254.40;;;;;;5028400;28;20026;-54
2023/06/04 05:30:31;;;;;;;8.90;7.38;;;973.30;1254.40;;;;;;5028512;28;20388;-55
2023/06/04 05:32:59;;;;;;;7.78;7.00;;;;;;;;;;5028751;28;20063;-55
2023/06/04 05:35:25;;;;;;;11.48;7.68;;;;;;;;;;5031750;28;20108;-57
2023/06/04 05:37:54;;;;;;;8.23;7.43;;;1024.20;1177.60;;;;;;5032046;28;20025;-57
2023/06/04 05:40:21;;;;;;;18.00;8.05;;;1024.00;1177.60;;;;;;5019595;28;20682;-56
2023/06/04 05:42:47;;;;;;;14.20;8.00;;;1024.10;1177.60;;;;;;5032152;28;20183;-56
2023/06/04 05:45:13;;;;;;;9.20;8.10;;;1049.80;1152.00;;;;;;5032362;28;20494;-57
2023/06/04 05:47:38;;;;;;;13.18;8.57;;;1050.40;1126.40;;;;;;5032369;28;20029;-56
2023/06/04 05:50:05;;;;;;;11.18;8.73;;;1049.70;1177.60;;;;;;5032070;28;20036;-63
2023/06/04 05:52:33;;;;;;;10.77;9.57;;;1024.70;1152.00;;;;;;5032160;28;20030;-56
2023/06/04 05:54:58;;;;;;;10.10;9.10;;;1075.70;1100.80;;;;;;5032259;28;20091;-57
2023/06/04 05:57:24;;;;;;;10.40;8.88;;;1075.20;1100.80;;;;;;5031687;28;20468;-58
2023/06/04 05:59:50;;;;;;;15.65;9.30;;;1075.40;1100.80;;;;;;5032266;28;20113;-59
2023/06/04 06:02:16;;;;;;;10.25;9.15;;;1101.20;1075.20;;;;;;5031965;28;20029;-64
2023/06/04 06:04:41;;;;;;;10.63;9.45;;;1075.70;1100.80;;;;;;5031640;28;20468;-59
2023/06/04 06:07:07;;;;;;;10.88;9.70;;;1050.50;1126.40;;;;;;5029424;28;20025;-56
2023/06/04 06:09:34;;;;;;;13.00;10.63;;;1050.30;1126.40;;;;;;5020367;28;20480;-55
2023/06/04 06:11:59;;;;;;;11.10;9.98;;;1024.90;1126.40;;;;;;5031429;28;20022;-56
2023/06/04 06:14:25;;;;;;;12.07;9.68;;;1050.40;1126.40;;;;;;5032009;28;20157;-55
2023/06/04 06:16:52;;;;;;;11.57;10.07;;;1101.70;1075.20;;;;;;5031242;28;20076;-55
2023/06/04 06:19:18;;;;;;;12.98;9.82;;;1075.50;1075.20;;;;;;5031330;28;20032;-58
2023/06/04 06:21:44;;;;;;;22.45;10.70;;;1050.20;1100.80;;;;;;5031587;28;20025;-56
2023/06/04 06:24:10;;;;;;;11.60;10.60;;;1075.80;1075.20;;;;;;5031281;28;20024;-55
2023/06/04 06:26:35;;;;;;;11.10;10.00;;;1050.00;1126.40;;;;;;5031299;28;20068;-56
2023/06/04 06:29:01;;;;;;;11.65;10.60;;;1075.60;1049.60;;;;;;5030958;28;20123;-56
2023/06/04 06:31:27;;;;;;;11.13;10.23;;;1050.50;1100.80;;;;;;5031116;28;20494;-56
2023/06/04 06:33:53;;;;;;;12.20;10.85;;;1075.90;1075.20;;;;;;5031708;28;20029;-57
2023/06/04 06:36:19;;;;;;;13.90;12.35;;;1075.50;1075.20;;;;;;5030906;28;20026;-58
2023/06/04 06:38:46;;;;;;;13.73;11.05;;;1075.40;1100.80;;;;;;5031690;28;20548;-56
2023/06/04 06:41:12;;;;;;;15.13;10.93;;;1050.50;1100.80;;;;;;5016799;28;20042;-55
2023/06/04 06:43:37;;;;;;;12.60;11.43;;;1101.00;1075.20;;;;;;5010907;28;20061;-55
2023/06/04 06:46:03;;;;;;;13.68;12.27;;;1075.70;1075.20;;;;;;5016125;28;20075;-55
2023/06/04 06:48:29;;;;;;;13.98;11.15;;;1100.90;1075.20;;;;;;5030985;28;20069;-57
2023/06/04 06:50:55;;;;;;;11.38;10.38;;;1100.90;1075.20;;;;;;5030751;28;20064;-56
2023/06/04 06:53:21;;;;;;;12.35;11.18;;;1101.30;1049.60;;;;;;5031096;28;20029;-57
2023/06/04 06:55:47;;;;;;;12.38;11.27;;;1126.70;1024.00;;;;;;5030886;28;20395;-57
2023/06/04 06:58:13;;;;;;;12.57;11.40;;;1126.60;1024.00;;;;;;5031159;28;20029;-59
2023/06/04 07:00:38;;;;;;;13.63;9.88;;;1101.00;1075.20;;;;;;5030444;28;20537;-56
2023/06/04 07:03:04;;;;;;;12.32;11.02;;;1126.90;1024.00;;;;;;5030717;28;20035;-57
2023/06/04 07:05:30;;;;;;;11.15;10.13;;;1126.40;1024.00;;;;;;5030668;28;20506;-56
2023/06/04 07:07:57;;;;;;;11.10;10.10;;;1101.00;1049.60;;;;;;5030976;28;20087;-59
2023/06/04 07:10:24;;;;;;;12.00;10.88;;;1152.40;998.40;;;;;;5030975;28;20057;-59
2023/06/04 07:12:49;;;;;;;12.18;11.07;;;1177.70;998.40;;;;;;5030334;28;20048;-57
2023/06/04 07:15:15;;;;;;;14.68;12.38;;;1203.30;972.80;;;;;;5030853;28;20067;-57
2023/06/04 07:17:41;;;;;;;12.93;11.90;;;1152.60;998.40;;;;;;5030400;28;20030;-56
2023/06/04 07:20:09;;;;;;;12.68;11.57;;;1126.60;1024.00;;;;;;5029906;28;20079;-63
2023/06/04 07:22:35;;;;;;;12.85;11.13;;;1101.30;1024.00;;;;;;5019382;28;20041;-55
2023/06/04 07:25:02;;;;;;;13.43;12.20;;;1127.10;1024.00;;;;;;5019609;28;20472;-56
2023/06/04 07:27:27;;;;;;;12.60;11.30;;;1177.70;998.40;;;;;;5029490;28;20156;-57
2023/06/04 07:29:53;;;;;;;12.32;11.35;;;1178.10;947.20;;;;;;5030156;28;20112;-55
2023/06/04 07:32:19;;;;;;;13.38;12.10;;;1178.20;947.20;;;;;;5030135;28;20112;-55
2023/06/04 07:34:45;;;;;;;14.18;12.60;;;1152.20;998.40;;;;;;5030027;28;20030;-55
2023/06/04 07:37:12;;;;;;;11.98;10.27;;;1101.40;1024.00;;;;;;5029775;28;20025;-55
2023/06/04 07:39:39;;;;;;;12.55;11.00;;;1152.50;972.80;;;;;;5029783;28;20043;-58
2023/06/04 07:42:07;;;;;;;12.80;11.27;;;1152.40;998.40;;;;;;5029728;28;20045;-64
2023/06/04 07:44:32;;;;;;;11.95;10.80;;;1152.60;998.40;;;;;;5029562;28;20025;-57
2023/06/04 07:46:58;;;;;;;17.05;11.13;;;1152.50;998.40;;;;;;5029850;28;20083;-63
2023/06/04 07:49:24;;;;;;;12.43;11.20;;;1152.20;998.40;;;;;;5029874;28;20033;-56
2023/06/04 07:51:49;;;;;;;12.68;11.48;;;1152.40;972.80;;;;;;5029211;28;20017;-57
2023/06/04 07:54:16;;;;;;;12.02;10.85;;;1178.20;947.20;;;;;;5029802;28;20113;-58
2023/06/04 07:56:42;;;;;;;11.85;10.75;;;1127.30;998.40;;;;;;5029569;28;20025;-60
2023/06/04 07:59:08;;;;;;;12.63;11.00;;;1152.50;972.80;;;;;;5028347;28;20388;-56
2023/06/04 08:01:33;;;;;;;15.10;11.65;;;1177.80;972.80;;;;;;5029337;28;20060;-57
2023/06/04 08:03:59;;;;;;;11.38;10.45;;;1126.40;1024.00;;;;;;5029450;28;20025;-63
2023/06/04 08:06:26;;;;;;;12.15;11.15;;;1075.70;1049.60;;;;;;5029147;28;20029;-64
2023/06/04 08:08:52;;;;;;;14.05;11.27;;;1101.20;1024.00;;;;;;5029189;28;20045;-62
2023/06/04 08:11:18;;;;;;;11.13;10.20;;;1101.60;1024.00;;;;;;5028785;28;20083;-57
2023/06/04 08:13:43;;;;;;;11.07;10.07;;;1024.00;1100.80;;;;;;5029385;28;20472;-56
2023/06/04 08:16:10;;;;;;;13.50;8.68;;;947.90;1177.60;;;;;;5029266;28;20022;-56
2023/06/04 08:18:39;;;;;;;10.00;7.53;;;896.30;1254.40;;;;;;5029426;28;20181;-55
2023/06/04 08:21:06;;;;;;;8.32;7.53;;;845.70;1356.80;;;;;;5029236;28;20067;-69
2023/06/04 08:23:32;;;;;;;13.82;8.35;;;819.30;1459.20;;;;;;5028908;28;20033;-57
2023/06/04 08:25:58;;;;;;;9.93;7.82;;;768.80;1536.00;;;;;;5028892;28;20026;-57
2023/06/04 08:28:24;;;;;;;9.13;7.45;;;768.90;1536.00;;;;;;5028912;28;20476;-67
2023/06/04 08:30:50;;;;;;;11.70;7.22;;;768.20;1561.60;;;;;;5029025;28;20075;-57
2023/06/04 08:33:16;;;;;;;12.07;6.97;;;743.20;1638.40;;;;;;5029054;28;20490;-62
2023/06/04 08:35:41;;;;;;;14.40;8.20;;;743.10;1638.40;;;;;;5029047;28;20032;-58
2023/06/04 08:38:07;;;;;;;8.43;7.30;;;742.40;1715.20;;;;;;5029061;28;20029;-59
2023/06/04 08:40:34;;;;;;;12.00;8.10;;;742.40;1715.20;;;;;;5028582;28;20076;-57
2023/06/04 08:43:01;;;;;;;10.35;7.72;;;742.50;1689.60;;;;;;5028155;28;20033;-58
2023/06/04 08:45:27;;;;;;;8.10;6.88;;;717.40;1766.40;;;;;;5028975;28;20028;-66
2023/06/04 08:47:54;;;;;;;7.40;6.70;;;742.60;1715.20;;;;;;5028776;28;20029;-60
2023/06/04 08:50:22;;;;;;;9.15;7.85;;;742.80;1715.20;;;;;;5026231;28;20411;-57
2023/06/04 08:52:57;;;;;;;7.85;7.10;;;743.00;1689.60;;;;;;5026682;28;20037;-57
2023/06/04 08:55:23;;;;;;;8.00;6.95;;;742.90;1715.20;;;;;;5026664;28;20108;-58
2023/06/04 08:57:52;;;;;;;9.27;7.18;;;742.80;1740.80;;;;;;5026473;28;20476;-58
2023/06/04 09:00:18;;;;;;;8.32;7.30;;;743.10;1715.20;;;;;;5027424;28;20029;-59
2023/06/04 09:02:46;;;;;;;8.25;7.15;;;743.30;1740.80;;;;;;5027135;28;20516;-68
2023/06/04 09:05:22;;;;;;;9.43;6.65;;;742.40;1740.80;;;;;;5027378;28;20155;-69
2023/06/04 09:07:51;;;;;;;7.60;6.90;;;742.50;1715.20;;;;;;5027307;28;20435;-61
2023/06/04 09:10:20;;;;;;;7.32;6.50;;;742.60;1740.80;;;;;;5029984;28;20100;-59
2023/06/04 09:12:48;;;;;;;7.55;6.30;;;743.20;1715.20;;;;;;5031488;28;20057;-58
2023/06/04 09:15:14;;;;;;;12.13;6.75;;;742.90;1689.60;;;;;;5030994;28;20476;-57
2023/06/04 09:17:40;;;;;;;8.02;7.15;;;742.60;1715.20;;;;;;5031121;28;20018;-58
2023/06/04 09:20:09;;;;;;;12.70;6.88;;;717.40;1740.80;;;;;;5031319;28;20033;-57
2023/06/04 09:22:37;;;;;;;7.47;6.07;;;717.70;1740.80;;;;;;5031324;28;20536;-57
2023/06/04 09:25:08;;;;;;;9.25;6.10;;;743.00;1715.20;;;;;;5031028;28;20163;-57
2023/06/04 09:27:40;;;;;;;6.93;5.82;;;743.00;1664.00;;;;;;5030405;28;20026;-57
2023/06/04 09:30:08;;;;;;;7.55;5.72;;;742.70;1664.00;;;;;;5030944;28;20041;-57
2023/06/04 09:32:34;;;;;;;19.23;17.33;;;742.50;1689.60;;;;;;5030711;28;20026;-58
2023/06/04 09:35:14;;;;;;;8.45;6.18;;;717.70;1689.60;;;;;;5031111;28;20045;-57
2023/06/04 09:37:54;;;;;;;6.68;6.05;;;742.60;1740.80;;;;;;5019210;28;20029;-58
2023/06/04 09:40:20;;;;;;;16.02;6.93;;;717.60;1715.20;;;;;;5030449;28;20119;-58
2023/06/04 09:42:53;;;;;;;5.28;4.78;;;717.70;1715.20;;;;;;5030427;28;20029;-60
2023/06/04 09:45:31;;;;;;;8.10;5.53;;;717.10;1740.80;;;;;;5030207;28;20502;-59
2023/06/04 09:48:00;;;;;;;6.55;5.68;;;717.50;1766.40;;;;;;5030621;28;20049;-61
2023/06/04 09:50:33;;;;;;;10.18;5.63;;;742.40;1740.80;;;;;;5032484;28;20441;-66
2023/06/04 09:52:59;;;;;;;6.32;5.40;;;717.40;1715.20;;;;;;5031550;28;20022;-59
2023/06/04 09:55:26;;;;;;;6.70;5.07;;;717.70;1689.60;;;;;;5032105;28;20120;-70
2023/06/04 09:57:52;;;;;;;6.88;4.90;;;692.10;1740.80;;;;;;5032051;28;20033;-70
2023/06/04 10:00:22;;;;;;;5.47;4.97;;;692.10;1740.80;;;;;;5032139;28;20030;-59
2023/06/04 10:02:49;;;;;;;5.72;5.13;;;691.80;1740.80;;;;;;5031586;28;20025;-63
2023/06/04 10:05:15;;;;;;;6.65;5.85;;;691.90;1740.80;;;;;;5031936;28;20475;-60
2023/06/04 10:07:45;;;;;;;8.15;4.88;;;717.10;1715.20;;;;;;5031720;28;20379;-59
2023/06/04 10:10:16;;;;;;;7.50;4.75;;;717.10;1740.80;;;;;;5031664;28;20128;-69
2023/06/04 10:12:43;;;;;;;7.28;5.20;;;692.10;1715.20;;;;;;5031369;28;20463;-60
2023/06/04 10:15:12;;;;;;;5.85;5.03;;;716.90;1740.80;;;;;;5031279;28;20038;-59
2023/06/04 10:17:39;;;;;;;4.97;4.30;;;716.90;1715.20;;;;;;5018923;28;20021;-59
2023/06/04 10:20:08;;;;;;;9.52;5.20;;;691.90;1715.20;;;;;;5030827;28;20033;-59
2023/06/04 10:22:35;;;;;;;6.10;4.72;;;692.00;1715.20;;;;;;5031397;28;20017;-60
2023/06/04 10:25:02;;;;;;;5.28;4.68;;;716.80;1740.80;;;;;;5031085;28;20033;-65
2023/06/04 10:27:30;;;;;;;6.57;5.07;;;691.70;1740.80;;;;;;5031597;28;20026;-69
2023/06/04 10:29:57;;;;;;;5.72;4.78;;;691.30;1766.40;;;;;;5031228;28;20487;-59
2023/06/04 10:32:30;;;;;;;5.25;4.50;;;691.40;1817.60;;;;;;5031539;28;20083;-60
2023/06/04 10:34:57;;;;;;;9.25;5.63;;;691.30;1766.40;;;;;;5031366;28;20033;-59
2023/06/04 10:37:24;;;;;;;5.45;4.90;;;691.50;1792.00;;;;;;5031328;28;20028;-71
2023/06/04 10:39:54;;;;;;;5.35;4.70;;;691.30;1715.20;;;;;;5030833;28;20037;-61
2023/06/04 10:42:21;;;;;;;5.30;4.80;;;691.30;1740.80;;;;;;5030874;28;20424;-59
2023/06/04 10:44:49;;;;;;;5.20;4.68;;;691.30;1740.80;;;;;;5031162;28;20057;-59
2023/06/04 10:47:25;;;;;;;6.30;5.60;;;666.50;1792.00;;;;;;5031286;28;20424;-57
2023/06/04 10:49:52;;;;;;;5.78;4.95;;;666.50;1792.00;;;;;;5030763;28;20036;-58
2023/06/04 10:52:18;;;;;;;5.10;4.57;;;691.40;1766.40;;;;;;5030977;28;20128;-60
2023/06/04 10:54:48;;;;;;;4.80;4.30;;;691.60;1766.40;;;;;;5031339;28;20029;-58
2023/06/04 10:57:18;;;;;;;5.05;4.55;;;691.40;1792.00;;;;;;5031161;28;20590;-58
2023/06/04 10:59:56;;;;;;;5.32;4.50;;;666.40;1792.00;;;;;;5031123;28;20399;-58
2023/06/04 11:02:23;;;;;;;8.05;3.88;;;666.50;1817.60;;;;;;5030969;28;20087;-58
2023/06/04 11:05:05;;;;;;;10.75;5.30;;;691.50;1792.00;;;;;;5029447;28;20068;-58
2023/06/04 11:07:44;;;;;;;6.17;5.40;;;691.20;1843.20;;;;;;5029015;28;20028;-58
2023/06/04 11:10:14;;;;;;;8.98;4.82;;;666.40;1792.00;;;;;;5029148;28;20041;-58
2023/06/04 11:12:48;;;;;;;6.38;4.68;;;666.40;1817.60;;;;;;5028734;28;20009;-70
2023/06/04 11:15:16;;;;;;;5.13;4.63;;;666.10;1792.00;;;;;;5029213;28;20030;-58
2023/06/04 11:17:53;;;;;;;5.40;4.90;;;666.40;1843.20;;;;;;5028499;28;20017;-57
2023/06/04 11:20:20;;;;;;;6.80;4.63;;;666.10;1843.20;;;;;;5028795;28;20383;-59
2023/06/04 11:22:56;;;;;;;6.13;5.47;;;666.30;1817.60;;;;;;5029285;28;20250;-59
2023/06/04 11:25:26;;;;;;;5.20;4.70;;;691.20;1817.60;;;;;;5028972;28;20025;-58
2023/06/04 11:27:54;;;;;;;7.57;4.47;;;666.50;1843.20;;;;;;5030670;28;20105;-57
2023/06/04 11:30:21;;;;;;;5.07;4.53;;;666.50;1817.60;;;;;;5029891;28;20037;-58
2023/06/04 11:32:47;;;;;;;5.80;3.95;;;666.50;1817.60;;;;;;5029922;28;20533;-59
2023/06/04 11:35:13;;;;;;;4.97;4.47;;;666.50;1792.00;;;;;;5030137;28;20022;-58
2023/06/04 11:37:40;;;;;;;5.88;5.25;;;691.30;1817.60;;;;;;5030107;28;20112;-58
2023/06/04 11:40:19;;;;;;;7.05;4.70;;;691.30;1792.00;;;;;;5029853;28;20077;-58
2023/06/04 11:42:46;;;;;;;5.22;4.70;;;691.30;1817.60;;;;;;5029768;28;20475;-60
2023/06/04 11:45:17;;;;;;;5.90;4.53;;;666.50;1792.00;;;;;;5029858;28;20030;-69
2023/06/04 11:47:55;;;;;;;6.22;4.57;;;666.30;1792.00;;;;;;5030226;28;20041;-58
2023/06/04 11:50:21;;;;;;;5.38;4.18;;;666.30;1817.60;;;;;;5029813;28;20100;-66
2023/06/04 11:52:48;;;;;;;7.28;4.35;;;666.30;1817.60;;;;;;5029763;28;20094;-58
2023/06/04 11:55:17;;;;;;;6.10;5.03;;;691.40;1843.20;;;;;;5029916;28;20032;-69
2023/06/04 11:57:43;;;;;;;4.97;4.43;;;691.20;1817.60;;;;;;5029939;28;20100;-58
2023/06/04 12:00:10;;;;;;;5.43;4.57;;;666.50;1843.20;;;;;;5029628;28;20029;-58
2023/06/04 12:02:55;;;;;;;6.95;4.97;;;691.20;1817.60;;;;;;5029677;28;20033;-58
2023/06/04 12:05:29;;;;;;;5.93;4.70;;;666.50;1843.20;;;;;;5029788;28;20026;-59
2023/06/04 12:08:09;;;;;;;7.15;4.97;;;666.00;1868.80;;;;;;5017365;28;20033;-58
2023/06/04 12:10:42;;;;;;;5.13;4.30;;;666.10;1843.20;;;;;;5029345;28;20484;-58